Time;durP1;ratioP1;P1;durP2;ratioP2;P2;SDS_P1;SDS_P2;PMS_P1;PMS_P2;Temp;Humidity;BMP_temperature;BMP_pressure;BME280_temperature;BME280_humidity;BME280_pressure;Samples;Min_cycle;Max_cycle;Signal;HPM_P1;HPM_P2
2022/11/07 05:02:38;;;;;;;0.80;0.80;;;11.00;99.90;;;;;;6090700;23;20599;-71
2022/11/07 05:05:05;;;;;;;1.70;1.20;;;11.00;99.90;;;;;;6093096;23;20186;-69
2022/11/07 05:07:32;;;;;;;1.70;1.60;;;11.00;99.90;;;;;;6091897;23;20193;-69
2022/11/07 05:09:59;;;;;;;1.17;1.17;;;11.00;99.90;;;;;;6093937;23;20209;-69
2022/11/07 05:12:25;;;;;;;0.85;0.85;;;10.90;99.90;;;;;;6068016;23;20205;-69
2022/11/07 05:14:52;;;;;;;1.52;1.42;;;10.90;99.90;;;;;;6065032;23;20210;-69
2022/11/07 05:17:19;;;;;;;1.05;1.05;;;10.90;99.90;;;;;;6065931;23;20186;-69
2022/11/07 05:19:47;;;;;;;1.33;1.30;;;10.90;99.90;;;;;;6065383;23;20244;-69
2022/11/07 05:24:58;;;;;;;1.35;1.35;;;10.80;99.90;;;;;;6064379;23;20187;-70
2022/11/07 05:27:25;;;;;;;3.55;2.00;;;10.70;99.90;;;;;;6066150;23;20200;-69
2022/11/07 05:29:52;;;;;;;1.30;1.30;;;10.70;99.90;;;;;;6065161;23;20207;-69
2022/11/07 05:32:19;;;;;;;1.67;1.58;;;10.70;99.90;;;;;;6065920;23;20726;-69
2022/11/07 05:34:47;;;;;;;1.35;1.33;;;10.70;99.90;;;;;;6063901;23;20662;-69
2022/11/07 05:37:14;;;;;;;1.30;1.20;;;10.60;99.90;;;;;;6066418;23;20207;-70
2022/11/07 05:39:40;;;;;;;1.08;0.98;;;10.60;99.90;;;;;;6064869;23;20508;-69
2022/11/07 05:42:08;;;;;;;1.85;1.80;;;10.70;99.90;;;;;;6064678;23;20255;-70
2022/11/07 05:44:34;;;;;;;1.13;1.13;;;10.60;99.90;;;;;;6064664;23;20196;-69
2022/11/07 05:47:01;;;;;;;5.57;1.90;;;10.60;99.90;;;;;;6066266;23;20188;-69
2022/11/07 05:49:28;;;;;;;0.90;0.90;;;10.60;99.90;;;;;;6067626;23;20284;-70
2022/11/07 05:51:57;;;;;;;2.65;2.20;;;10.60;99.90;;;;;;6068179;23;20212;-71
2022/11/07 05:54:26;;;;;;;0.93;0.88;;;10.60;99.90;;;;;;6067227;23;20188;-69
2022/11/07 05:56:55;;;;;;;1.10;1.10;;;10.50;99.90;;;;;;6072829;23;20214;-71
2022/11/07 05:59:22;;;;;;;1.17;1.17;;;10.50;99.90;;;;;;6071924;23;20192;-71
2022/11/07 06:01:49;;;;;;;1.85;1.50;;;10.50;99.90;;;;;;6065732;23;20218;-70
2022/11/07 06:04:15;;;;;;;3.72;1.20;;;10.50;99.90;;;;;;6065599;23;20201;-70
2022/11/07 06:06:42;;;;;;;4.88;2.10;;;10.50;99.90;;;;;;6066748;23;20651;-70
2022/11/07 06:09:11;;;;;;;1.42;1.25;;;10.50;99.90;;;;;;6066437;23;20184;-69
2022/11/07 06:11:38;;;;;;;2.13;2.03;;;10.50;99.90;;;;;;6065459;23;20250;-69
2022/11/07 06:14:04;;;;;;;1.27;1.27;;;10.50;99.90;;;;;;6065083;23;20632;-71
2022/11/07 06:16:31;;;;;;;1.48;1.42;;;10.50;99.90;;;;;;6065298;23;20194;-69
2022/11/07 06:18:58;;;;;;;1.50;1.50;;;10.50;99.90;;;;;;6065265;23;20184;-69
2022/11/07 06:21:24;;;;;;;1.27;1.27;;;10.60;99.90;;;;;;6066126;23;20200;-70
2022/11/07 06:23:51;;;;;;;1.85;1.80;;;10.60;99.90;;;;;;6064620;23;20618;-68
2022/11/07 06:26:19;;;;;;;5.85;1.30;;;10.50;99.90;;;;;;6064722;23;20185;-70
2022/11/07 06:28:46;;;;;;;2.03;2.00;;;10.50;99.90;;;;;;6066074;23;20214;-69
2022/11/07 06:31:12;;;;;;;1.05;1.05;;;10.50;99.90;;;;;;6066483;23;20219;-70
2022/11/07 06:33:39;;;;;;;0.95;0.95;;;10.50;99.90;;;;;;6065437;23;20271;-70
2022/11/07 06:36:08;;;;;;;1.55;1.45;;;10.50;99.90;;;;;;6065995;23;20665;-71
2022/11/07 06:38:35;;;;;;;0.95;0.95;;;10.40;99.90;;;;;;6065551;23;20653;-72
2022/11/07 06:41:05;;;;;;;3.35;1.80;;;10.50;99.90;;;;;;6066051;23;20204;-71
2022/11/07 06:43:33;;;;;;;1.92;1.75;;;10.50;99.90;;;;;;6064699;23;20255;-71
2022/11/07 06:46:02;;;;;;;2.47;2.05;;;10.50;99.90;;;;;;6065282;23;20188;-71
2022/11/07 06:48:29;;;;;;;0.90;0.88;;;10.50;99.90;;;;;;6065367;23;20185;-71
2022/11/07 06:50:59;;;;;;;2.20;1.30;;;10.50;99.90;;;;;;6064632;23;20212;-72
2022/11/07 06:53:26;;;;;;;1.23;1.20;;;10.50;99.90;;;;;;6063997;23;20200;-70
2022/11/07 06:55:54;;;;;;;1.15;1.15;;;10.60;99.90;;;;;;6064654;23;20291;-71
2022/11/07 06:58:21;;;;;;;4.10;1.13;;;10.50;99.90;;;;;;6064842;23;20651;-71
2022/11/07 07:00:49;;;;;;;1.00;1.00;;;10.50;99.90;;;;;;6063913;23;20217;-72
2022/11/07 07:03:16;;;;;;;2.45;1.52;;;10.60;99.90;;;;;;6064399;23;20176;-72
2022/11/07 07:05:43;;;;;;;1.52;1.42;;;10.60;99.90;;;;;;6063867;23;20184;-71
2022/11/07 07:08:11;;;;;;;1.45;1.45;;;10.60;99.90;;;;;;6064609;23;20195;-71
2022/11/07 07:10:41;;;;;;;1.15;1.15;;;10.70;99.90;;;;;;6064051;23;20585;-72
2022/11/07 07:13:08;;;;;;;2.88;1.38;;;10.70;99.90;;;;;;6063200;23;20246;-71
2022/11/07 07:15:35;;;;;;;9.07;2.10;;;10.70;99.90;;;;;;6062463;23;20196;-71
2022/11/07 07:18:04;;;;;;;1.00;1.00;;;10.60;99.90;;;;;;6063264;23;20191;-72
2022/11/07 07:20:31;;;;;;;2.45;1.52;;;10.60;99.90;;;;;;6064672;23;20362;-71
2022/11/07 07:22:58;;;;;;;3.40;1.55;;;10.70;99.90;;;;;;6064362;23;20188;-72
2022/11/07 07:25:24;;;;;;;2.28;2.17;;;10.70;99.90;;;;;;6064957;23;20643;-72
2022/11/07 07:27:51;;;;;;;1.80;1.70;;;10.80;99.90;;;;;;6065625;23;20198;-72
2022/11/07 07:30:18;;;;;;;1.20;1.20;;;10.80;99.90;;;;;;6064886;23;20678;-72
2022/11/07 07:32:44;;;;;;;1.05;1.05;;;10.80;99.90;;;;;;6065076;23;20199;-72
2022/11/07 07:35:12;;;;;;;1.25;1.15;;;10.90;99.90;;;;;;6065634;23;20836;-71
2022/11/07 07:37:39;;;;;;;1.10;1.10;;;10.90;99.90;;;;;;6067276;23;20192;-71
2022/11/07 07:40:07;;;;;;;1.77;1.65;;;10.90;99.90;;;;;;6067488;23;20191;-71
2022/11/07 07:42:34;;;;;;;3.00;1.25;;;10.90;99.90;;;;;;6067509;23;20209;-71
2022/11/07 07:45:01;;;;;;;1.95;1.85;;;11.00;99.90;;;;;;6066649;23;20594;-72
2022/11/07 07:47:27;;;;;;;2.95;1.20;;;11.00;99.90;;;;;;6064387;23;20187;-71
2022/11/07 07:49:54;;;;;;;1.55;1.33;;;11.00;99.90;;;;;;6066285;23;20189;-70
2022/11/07 07:52:22;;;;;;;2.58;1.83;;;11.10;99.90;;;;;;6065239;23;20237;-71
2022/11/07 07:54:49;;;;;;;13.00;2.05;;;11.10;99.90;;;;;;6064232;23;20184;-70
2022/11/07 07:57:15;;;;;;;1.50;1.50;;;11.10;99.90;;;;;;6066306;23;20194;-71
2022/11/07 07:59:42;;;;;;;1.73;1.63;;;11.20;99.90;;;;;;6064470;23;20188;-71
2022/11/07 08:02:10;;;;;;;0.90;0.90;;;11.30;99.90;;;;;;6064891;23;20549;-71
2022/11/07 08:04:37;;;;;;;1.98;1.90;;;11.30;99.90;;;;;;6065240;23;20256;-70
2022/11/07 08:07:04;;;;;;;1.67;1.58;;;11.30;99.90;;;;;;6066188;23;20187;-70
2022/11/07 08:09:35;;;;;;;2.95;1.25;;;11.40;99.90;;;;;;6065235;23;20725;-71
2022/11/07 08:12:02;;;;;;;1.30;1.20;;;11.40;99.90;;;;;;6066743;23;20298;-71
2022/11/07 08:14:29;;;;;;;2.60;1.00;;;11.40;99.90;;;;;;6066405;23;20186;-71
2022/11/07 08:16:56;;;;;;;0.82;0.77;;;11.50;99.90;;;;;;6065769;23;20482;-70
2022/11/07 08:19:23;;;;;;;0.85;0.85;;;11.50;99.90;;;;;;6065092;23;20186;-70
2022/11/07 08:21:49;;;;;;;2.63;2.40;;;11.60;99.90;;;;;;6065614;23;20210;-70
2022/11/07 08:24:16;;;;;;;1.40;1.40;;;11.60;99.90;;;;;;6063652;23;20510;-70
2022/11/07 08:26:44;;;;;;;1.70;1.20;;;11.70;99.90;;;;;;6066258;23;20191;-71
2022/11/07 08:29:11;;;;;;;1.23;1.23;;;11.90;99.90;;;;;;6066244;23;20184;-71
2022/11/07 08:31:38;;;;;;;7.03;1.20;;;12.20;99.90;;;;;;6066728;23;20662;-70
2022/11/07 08:34:04;;;;;;;1.40;1.40;;;12.20;99.90;;;;;;6066411;23;20427;-71
2022/11/07 08:36:31;;;;;;;0.98;0.98;;;12.20;99.90;;;;;;6066775;23;20198;-71
2022/11/07 08:38:58;;;;;;;1.20;1.20;;;12.10;99.90;;;;;;6064214;23;20183;-71
2022/11/07 08:41:25;;;;;;;1.42;1.42;;;12.10;99.90;;;;;;6065616;23;20210;-71
2022/11/07 08:43:53;;;;;;;0.90;0.90;;;12.30;99.90;;;;;;6065964;23;20496;-71
2022/11/07 08:46:19;;;;;;;3.65;1.20;;;12.50;99.90;;;;;;6066819;23;20182;-71
2022/11/07 08:48:46;;;;;;;4.10;0.90;;;12.60;99.90;;;;;;6065654;23;20195;-71
2022/11/07 08:51:13;;;;;;;3.60;0.83;;;12.60;99.90;;;;;;6065008;23;20965;-70
2022/11/07 08:53:39;;;;;;;2.10;1.63;;;12.50;99.90;;;;;;6064565;23;20427;-70
2022/11/07 08:56:08;;;;;;;1.97;1.97;;;12.50;99.90;;;;;;6064949;23;20444;-70
2022/11/07 08:58:35;;;;;;;1.80;1.40;;;12.40;99.90;;;;;;6065159;23;20964;-71
2022/11/07 09:01:07;;;;;;;1.90;1.85;;;12.40;99.90;;;;;;6065137;23;20452;-70
2022/11/07 09:03:35;;;;;;;3.92;0.93;;;12.40;99.90;;;;;;6064853;23;20242;-71
2022/11/07 09:06:03;;;;;;;0.90;0.90;;;12.50;99.90;;;;;;6066213;23;20262;-71
2022/11/07 09:08:30;;;;;;;1.63;1.63;;;12.60;99.90;;;;;;6065375;23;20810;-71
2022/11/07 09:11:01;;;;;;;1.90;1.60;;;12.80;99.90;;;;;;6064751;23;20954;-71
2022/11/07 09:13:28;;;;;;;1.07;1.07;;;12.90;99.90;;;;;;6064928;23;20411;-71
2022/11/07 09:15:56;;;;;;;7.87;1.60;;;13.00;99.90;;;;;;6066225;23;20433;-71
2022/11/07 09:18:25;;;;;;;1.77;1.33;;;13.20;99.90;;;;;;6065975;23;20455;-70
2022/11/07 09:20:52;;;;;;;0.87;0.87;;;13.20;99.90;;;;;;6075375;23;20450;-70
2022/11/07 09:23:19;;;;;;;1.10;1.10;;;13.20;99.90;;;;;;6064835;23;20548;-71
2022/11/07 09:25:46;;;;;;;1.30;1.20;;;13.20;99.90;;;;;;6064732;23;20428;-70
2022/11/07 09:28:13;;;;;;;1.93;1.83;;;13.20;99.90;;;;;;6064904;23;20934;-71
2022/11/07 09:30:39;;;;;;;1.47;1.47;;;13.20;99.90;;;;;;6066695;23;20448;-70
2022/11/07 09:33:06;;;;;;;3.30;1.27;;;13.20;99.90;;;;;;6066619;23;20505;-70
2022/11/07 09:35:34;;;;;;;0.77;0.77;;;13.20;99.90;;;;;;6068180;23;20431;-70
2022/11/07 09:38:01;;;;;;;1.07;1.07;;;13.20;99.90;;;;;;6066656;23;20732;-70
2022/11/07 09:40:39;;;;;;;1.00;0.77;;;13.10;99.90;;;;;;6065848;23;20432;-70
2022/11/07 09:43:18;;;;;;;1.40;1.40;;;13.10;99.90;;;;;;6065662;23;20468;-70
2022/11/07 09:45:54;;;;;;;1.43;1.43;;;13.10;99.90;;;;;;6065451;23;20423;-70
2022/11/07 09:48:25;;;;;;;2.57;1.70;;;13.00;99.90;;;;;;6065748;23;20728;-71
2022/11/07 09:50:53;;;;;;;1.35;1.25;;;13.00;99.90;;;;;;6073234;23;20486;-72
2022/11/07 09:53:29;;;;;;;1.30;1.20;;;13.10;99.90;;;;;;6065444;23;20197;-72
2022/11/07 09:55:59;;;;;;;3.33;1.70;;;13.10;99.90;;;;;;6064800;23;20434;-72
2022/11/07 09:58:29;;;;;;;1.30;1.17;;;13.20;99.90;;;;;;6066014;23;20516;-72
2022/11/07 10:00:59;;;;;;;1.70;1.70;;;13.20;99.90;;;;;;6065669;23;20795;-71
2022/11/07 10:03:26;;;;;;;1.77;1.67;;;13.30;99.90;;;;;;6067892;23;20412;-70
2022/11/07 10:06:02;;;;;;;2.20;1.60;;;13.30;99.90;;;;;;6073201;23;20838;-71
2022/11/07 10:08:38;;;;;;;1.23;1.23;;;13.30;99.90;;;;;;6067573;23;20412;-71
2022/11/07 10:11:12;;;;;;;1.60;1.50;;;13.30;99.90;;;;;;6063140;23;20447;-70
2022/11/07 10:13:59;;;;;;;4.53;1.90;;;13.30;99.90;;;;;;6065231;23;20412;-72
2022/11/07 10:16:39;;;;;;;1.30;1.30;;;13.30;99.90;;;;;;6065781;23;20422;-72
2022/11/07 10:19:21;;;;;;;0.93;0.93;;;13.40;99.90;;;;;;6066136;23;20412;-71
2022/11/07 10:22:00;;;;;;;0.90;0.90;;;13.50;99.90;;;;;;6065870;23;20450;-70
2022/11/07 10:24:39;;;;;;;0.80;0.80;;;13.50;99.90;;;;;;6062821;23;20419;-71
2022/11/07 10:27:08;;;;;;;1.20;1.20;;;13.60;99.90;;;;;;6064999;23;20418;-71
2022/11/07 10:29:41;;;;;;;5.10;1.03;;;13.60;99.90;;;;;;6065833;23;20504;-71
2022/11/07 10:32:16;;;;;;;1.80;1.70;;;13.70;99.90;;;;;;6064784;23;20461;-70
2022/11/07 10:34:47;;;;;;;1.07;1.07;;;13.80;99.90;;;;;;6064791;23;20412;-70
2022/11/07 10:37:15;;;;;;;1.20;1.20;;;13.90;99.90;;;;;;6066421;23;20425;-70
2022/11/07 10:39:42;;;;;;;0.73;0.73;;;14.00;99.90;;;;;;6064260;23;20428;-70
2022/11/07 10:42:12;;;;;;;0.90;0.90;;;14.10;99.90;;;;;;6064276;23;20449;-69
2022/11/07 10:44:41;;;;;;;1.57;1.50;;;14.30;99.90;;;;;;6063685;23;20432;-70
2022/11/07 10:47:15;;;;;;;1.00;1.00;;;14.30;99.90;;;;;;6065330;23;20896;-70
2022/11/07 10:49:54;;;;;;;2.47;1.03;;;14.30;99.90;;;;;;6064526;23;20728;-70
2022/11/07 10:52:22;;;;;;;1.43;1.30;;;14.30;99.90;;;;;;6064567;23;20468;-70
2022/11/07 10:54:49;;;;;;;0.40;0.40;;;14.20;99.90;;;;;;6063434;23;20427;-70
2022/11/07 10:57:18;;;;;;;1.13;1.03;;;14.30;99.90;;;;;;6063941;23;20429;-70
2022/11/07 10:59:54;;;;;;;1.30;1.20;;;14.20;99.90;;;;;;6063531;23;20631;-70
2022/11/07 11:02:23;;;;;;;3.17;1.90;;;14.30;99.90;;;;;;6063673;23;20483;-71
2022/11/07 11:04:52;;;;;;;0.93;0.90;;;14.20;99.90;;;;;;6062944;23;20428;-69
2022/11/07 11:07:20;;;;;;;0.70;0.70;;;14.20;99.90;;;;;;6065377;23;20416;-70
2022/11/07 11:09:53;;;;;;;1.73;1.60;;;14.10;99.90;;;;;;6060888;23;20426;-71
2022/11/07 11:12:24;;;;;;;3.10;1.40;;;14.00;99.90;;;;;;6065996;23;20451;-71
2022/11/07 11:14:50;;;;;;;3.40;1.37;;;14.00;99.90;;;;;;6064520;23;20886;-70
2022/11/07 11:17:25;;;;;;;1.80;0.90;;;14.00;99.90;;;;;;6065312;23;20452;-71
2022/11/07 11:19:53;;;;;;;1.10;1.10;;;13.90;99.90;;;;;;6063436;23;20412;-71
2022/11/07 11:22:23;;;;;;;1.17;1.17;;;14.00;99.90;;;;;;6064914;23;20451;-70
2022/11/07 11:25:03;;;;;;;1.23;1.23;;;14.00;99.90;;;;;;6062330;23;20469;-71
2022/11/07 11:27:34;;;;;;;1.20;1.20;;;14.00;99.90;;;;;;6064898;23;20408;-72
2022/11/07 11:30:06;;;;;;;1.33;1.30;;;14.00;99.90;;;;;;6064887;23;20415;-72
2022/11/07 11:32:37;;;;;;;1.80;1.37;;;14.10;99.90;;;;;;6064274;23;20456;-71
2022/11/07 11:35:20;;;;;;;0.97;0.90;;;14.10;99.90;;;;;;6064142;23;20821;-71
2022/11/07 11:37:52;;;;;;;1.40;1.40;;;14.10;99.90;;;;;;6063658;23;20421;-72
2022/11/07 11:40:22;;;;;;;1.80;1.80;;;14.10;99.90;;;;;;6063663;23;20413;-71
2022/11/07 11:42:55;;;;;;;5.37;1.27;;;14.10;99.90;;;;;;6063027;23;20429;-70
2022/11/07 11:45:30;;;;;;;0.90;0.90;;;14.10;99.90;;;;;;6064758;23;20739;-70
2022/11/07 11:48:02;;;;;;;1.53;1.03;;;14.10;99.90;;;;;;6064068;23;20412;-69
2022/11/07 11:50:38;;;;;;;2.03;1.93;;;14.00;99.90;;;;;;6063958;23;20416;-70
2022/11/07 11:53:05;;;;;;;1.60;1.60;;;13.90;99.90;;;;;;6062999;23;20436;-70
2022/11/07 11:55:40;;;;;;;6.47;1.50;;;13.90;99.90;;;;;;6081698;23;20459;-69
2022/11/07 11:58:16;;;;;;;2.63;1.40;;;13.90;99.90;;;;;;6091802;23;20421;-68
2022/11/07 12:00:53;;;;;;;1.43;1.43;;;13.90;99.90;;;;;;6092278;23;20425;-67
2022/11/07 12:03:55;;;;;;;1.80;1.40;;;13.90;99.90;;;;;;6092989;23;20419;-67
2022/11/07 12:06:29;;;;;;;1.70;1.70;;;13.90;99.90;;;;;;6055904;23;20688;-69
2022/11/07 12:09:11;;;;;;;1.90;1.80;;;13.90;99.90;;;;;;6062431;23;20428;-69
2022/11/07 12:11:48;;;;;;;1.20;1.20;;;13.90;99.90;;;;;;6065016;23;20739;-68
2022/11/07 12:14:44;;;;;;;2.10;0.97;;;14.00;99.90;;;;;;6072138;23;20424;-66
2022/11/07 12:17:18;;;;;;;2.50;1.53;;;14.00;99.90;;;;;;6064880;23;20412;-68
2022/11/07 12:19:53;;;;;;;1.50;1.50;;;14.10;99.90;;;;;;6062750;23;20738;-68
2022/11/07 12:22:28;;;;;;;1.17;1.17;;;14.10;99.90;;;;;;6064742;23;20786;-68
2022/11/07 12:25:00;;;;;;;3.60;1.57;;;14.20;99.90;;;;;;6063897;23;20552;-67
2022/11/07 12:27:37;;;;;;;2.40;2.40;;;14.20;99.90;;;;;;6065668;23;20780;-67
2022/11/07 12:30:14;;;;;;;6.93;1.63;;;14.20;99.90;;;;;;6065497;23;20476;-69
2022/11/07 12:32:54;;;;;;;1.40;1.40;;;14.20;99.90;;;;;;6065542;23;20442;-68
2022/11/07 12:35:37;;;;;;;1.40;1.30;;;14.30;99.90;;;;;;6065930;23;20455;-68
2022/11/07 12:38:30;;;;;;;6.50;1.30;;;14.30;99.90;;;;;;6064848;23;20423;-69
2022/11/07 12:41:03;;;;;;;1.30;1.30;;;14.30;99.90;;;;;;6064238;23;20413;-69
2022/11/07 12:43:45;;;;;;;1.40;1.40;;;14.40;99.90;;;;;;6065204;23;20419;-69
2022/11/07 12:46:21;;;;;;;1.57;1.57;;;14.40;99.90;;;;;;6065860;23;20455;-69
2022/11/07 12:49:07;;;;;;;1.97;1.87;;;14.40;99.90;;;;;;6064450;23;20416;-68
2022/11/07 12:51:43;;;;;;;10.33;2.23;;;14.40;99.90;;;;;;6066240;23;20413;-67
2022/11/07 12:54:37;;;;;;;0.87;0.87;;;14.30;99.90;;;;;;6062977;23;20402;-69
2022/11/07 12:57:09;;;;;;;1.70;1.60;;;14.30;99.90;;;;;;6066404;23;20435;-68
2022/11/07 12:59:41;;;;;;;1.97;1.87;;;14.30;99.90;;;;;;6064163;23;20912;-69
2022/11/07 13:02:17;;;;;;;0.77;0.77;;;14.30;99.90;;;;;;6065915;23;20409;-68
2022/11/07 13:04:51;;;;;;;7.83;1.57;;;14.30;99.90;;;;;;6065135;23;20455;-69
2022/11/07 13:07:23;;;;;;;8.03;1.57;;;14.30;99.90;;;;;;6066332;23;20416;-68
2022/11/07 13:09:57;;;;;;;1.37;1.37;;;14.30;99.90;;;;;;6062671;23;20413;-68
2022/11/07 13:12:31;;;;;;;2.00;1.77;;;14.30;99.90;;;;;;6065753;23;21273;-68
2022/11/07 13:14:59;;;;;;;1.40;1.17;;;14.30;99.90;;;;;;6065465;23;20453;-69
2022/11/07 13:17:37;;;;;;;1.27;1.27;;;14.30;99.90;;;;;;6066195;23;20741;-67
2022/11/07 13:20:23;;;;;;;1.27;1.27;;;14.20;99.90;;;;;;6064444;23;20441;-67
2022/11/07 13:22:52;;;;;;;1.27;1.27;;;14.20;99.90;;;;;;6063341;23;20590;-67
2022/11/07 13:25:25;;;;;;;1.47;1.43;;;14.30;99.90;;;;;;6064577;23;20460;-68
2022/11/07 13:28:25;;;;;;;4.13;1.37;;;14.30;99.90;;;;;;6065962;23;20444;-68
2022/11/07 13:30:58;;;;;;;2.10;1.30;;;14.30;99.90;;;;;;6065931;23;20413;-67
2022/11/07 13:33:28;;;;;;;0.93;0.93;;;14.30;99.90;;;;;;6063603;23;20452;-68
2022/11/07 13:35:57;;;;;;;1.17;1.00;;;14.20;99.90;;;;;;6064610;23;20448;-67
2022/11/07 13:38:25;;;;;;;1.63;1.53;;;14.20;99.90;;;;;;6065345;23;20429;-68
2022/11/07 13:40:57;;;;;;;2.40;2.30;;;14.20;99.90;;;;;;6065385;23;20433;-68
2022/11/07 13:43:27;;;;;;;1.03;1.03;;;14.20;99.90;;;;;;6063219;23;20409;-67
2022/11/07 13:45:57;;;;;;;1.20;0.87;;;14.20;99.90;;;;;;6065450;23;20447;-68
2022/11/07 13:48:28;;;;;;;1.47;1.37;;;14.20;99.90;;;;;;6065550;23;20413;-68
2022/11/07 13:51:01;;;;;;;1.23;0.83;;;14.20;99.90;;;;;;6064643;23;20413;-67
2022/11/07 13:53:35;;;;;;;2.10;0.90;;;14.20;99.90;;;;;;6063788;23;21077;-68
2022/11/07 13:56:14;;;;;;;1.43;1.00;;;14.10;99.90;;;;;;6064343;23;20467;-68
2022/11/07 13:58:43;;;;;;;2.00;1.43;;;14.00;99.90;;;;;;6064791;23;20514;-67
2022/11/07 14:01:12;;;;;;;1.27;1.27;;;14.00;99.90;;;;;;6066678;23;20451;-68
2022/11/07 14:03:39;;;;;;;6.73;2.87;;;13.80;99.90;;;;;;6066437;23;20435;-68
2022/11/07 14:06:07;;;;;;;1.10;1.10;;;13.80;99.90;;;;;;6067938;23;20459;-68
2022/11/07 14:08:37;;;;;;;3.30;1.67;;;13.80;99.90;;;;;;6069363;23;20437;-67
2022/11/07 14:11:13;;;;;;;1.33;1.33;;;13.80;99.90;;;;;;6070199;23;20769;-68
2022/11/07 14:13:40;;;;;;;1.23;1.23;;;13.80;99.90;;;;;;6069399;23;20436;-67
2022/11/07 14:16:19;;;;;;;5.37;1.20;;;13.80;99.90;;;;;;6074801;23;20448;-68
2022/11/07 14:18:47;;;;;;;8.23;1.93;;;13.80;99.90;;;;;;6073303;23;20412;-67
2022/11/07 14:21:19;;;;;;;2.47;1.13;;;13.80;99.90;;;;;;6075766;23;20432;-68
2022/11/07 14:23:46;;;;;;;4.57;1.17;;;13.80;99.90;;;;;;6076570;23;20413;-67
2022/11/07 14:26:18;;;;;;;4.50;1.00;;;13.80;99.90;;;;;;6078072;23;20443;-68
2022/11/07 14:28:45;;;;;;;2.67;1.13;;;13.70;99.90;;;;;;6075361;23;20413;-68
2022/11/07 14:31:18;;;;;;;4.20;1.50;;;13.70;99.90;;;;;;6077006;23;20434;-68
2022/11/07 14:33:49;;;;;;;8.43;1.30;;;13.70;99.90;;;;;;6070998;23;20440;-68
2022/11/07 14:36:15;;;;;;;1.80;1.57;;;13.70;99.90;;;;;;6066194;23;20467;-68
2022/11/07 14:38:47;;;;;;;1.00;1.00;;;13.70;99.90;;;;;;6065253;23;20455;-69
2022/11/07 14:41:14;;;;;;;10.87;2.00;;;13.60;99.90;;;;;;6065748;23;20420;-68
2022/11/07 14:43:42;;;;;;;6.03;1.30;;;13.60;99.90;;;;;;6064216;23;20912;-68
2022/11/07 14:46:12;;;;;;;3.73;1.40;;;13.60;99.90;;;;;;6065054;23;20566;-67
2022/11/07 14:48:42;;;;;;;1.17;1.17;;;13.60;99.90;;;;;;6063215;23;20416;-67
2022/11/07 14:51:12;;;;;;;1.67;1.57;;;13.60;99.90;;;;;;6064795;23;20911;-66
2022/11/07 14:53:55;;;;;;;1.17;1.17;;;13.60;99.90;;;;;;6064023;23;20479;-68
2022/11/07 14:56:28;;;;;;;1.90;1.90;;;13.60;99.90;;;;;;6063637;23;20456;-68
2022/11/07 14:58:55;;;;;;;1.70;1.60;;;13.60;99.90;;;;;;6065473;23;20884;-70
2022/11/07 15:01:28;;;;;;;1.40;1.40;;;13.60;99.90;;;;;;6064999;23;20435;-68
2022/11/07 15:03:58;;;;;;;1.60;1.50;;;13.60;99.90;;;;;;6063945;23;20409;-68
2022/11/07 15:06:32;;;;;;;2.20;1.90;;;13.60;99.90;;;;;;6065548;23;20471;-67
2022/11/07 15:09:00;;;;;;;4.17;1.10;;;13.60;99.90;;;;;;6065187;23;20436;-67
2022/11/07 15:11:30;;;;;;;4.80;1.43;;;13.60;99.90;;;;;;6065361;23;20451;-68
2022/11/07 15:13:59;;;;;;;3.60;1.37;;;13.60;99.90;;;;;;6063736;23;20768;-67
2022/11/07 15:16:30;;;;;;;4.63;1.67;;;13.60;99.90;;;;;;6063968;23;20451;-67
2022/11/07 15:19:01;;;;;;;2.27;2.17;;;13.60;99.90;;;;;;6065070;23;20419;-66
2022/11/07 15:21:30;;;;;;;2.33;1.40;;;13.70;99.90;;;;;;6065037;23;20740;-67
2022/11/07 15:23:57;;;;;;;1.20;1.20;;;13.60;99.90;;;;;;6063158;23;20429;-67
2022/11/07 15:26:28;;;;;;;2.43;1.80;;;13.60;99.90;;;;;;6064122;23;20444;-68
2022/11/07 15:29:12;;;;;;;1.07;1.03;;;13.60;99.90;;;;;;6064674;23;20449;-68
2022/11/07 15:31:39;;;;;;;3.00;1.23;;;13.60;99.90;;;;;;6063669;23;20468;-68
2022/11/07 15:34:11;;;;;;;3.67;1.30;;;13.50;99.90;;;;;;6063160;23;20457;-67
2022/11/07 15:36:38;;;;;;;1.80;1.10;;;13.50;99.90;;;;;;6065148;23;20500;-68
2022/11/07 15:39:05;;;;;;;1.23;1.23;;;13.40;99.90;;;;;;6074134;23;20423;-69
2022/11/07 15:41:32;;;;;;;1.50;1.50;;;13.30;99.90;;;;;;6063657;23;20435;-65
2022/11/07 15:43:58;;;;;;;1.37;1.30;;;13.30;99.90;;;;;;6060559;23;20427;-69
2022/11/07 15:46:31;;;;;;;3.60;1.73;;;13.20;99.90;;;;;;6063591;23;20455;-67
2022/11/07 15:48:57;;;;;;;1.50;1.47;;;13.10;99.90;;;;;;6059927;23;20494;-70
2022/11/07 15:51:25;;;;;;;1.27;1.27;;;13.10;99.90;;;;;;6060056;23;20763;-66
2022/11/07 15:53:52;;;;;;;1.60;1.50;;;13.10;99.90;;;;;;6061351;23;20868;-67
2022/11/07 15:56:21;;;;;;;1.00;1.00;;;13.00;99.90;;;;;;6059557;23;20456;-68
2022/11/07 15:58:48;;;;;;;6.63;2.30;;;13.00;99.90;;;;;;6066075;23;20537;-68
2022/11/07 16:01:15;;;;;;;1.80;1.37;;;12.90;99.90;;;;;;6066414;23;20431;-67
2022/11/07 16:03:41;;;;;;;1.30;1.30;;;12.80;99.90;;;;;;6065863;23;20428;-69
2022/11/07 16:06:16;;;;;;;2.00;1.83;;;12.80;99.90;;;;;;6064993;23;20451;-67
2022/11/07 16:08:44;;;;;;;2.50;1.53;;;12.80;99.90;;;;;;6067283;23;20406;-67
2022/11/07 16:11:11;;;;;;;6.07;2.70;;;12.80;99.90;;;;;;6063904;23;20471;-67
2022/11/07 16:13:38;;;;;;;1.93;1.90;;;12.80;99.90;;;;;;6065400;23;20447;-68
2022/11/07 16:16:06;;;;;;;10.30;2.50;;;12.90;99.90;;;;;;6066211;23;20459;-67
2022/11/07 16:18:37;;;;;;;2.30;2.10;;;12.90;99.90;;;;;;6066021;23;20438;-70
2022/11/07 16:21:04;;;;;;;2.00;1.73;;;12.90;99.90;;;;;;6065128;23;20426;-69
2022/11/07 16:23:31;;;;;;;2.20;2.00;;;12.90;99.90;;;;;;6064586;23;20423;-67
2022/11/07 16:25:59;;;;;;;1.50;1.50;;;12.90;99.90;;;;;;6064718;23;20447;-67
2022/11/07 16:28:30;;;;;;;4.60;3.77;;;12.90;99.90;;;;;;6066072;23;20416;-68
2022/11/07 16:30:56;;;;;;;1.70;1.30;;;12.90;99.90;;;;;;6067080;23;20454;-68
2022/11/07 16:33:23;;;;;;;1.53;1.53;;;13.00;99.90;;;;;;6066300;23;20447;-67
2022/11/07 16:35:52;;;;;;;1.70;1.70;;;13.00;99.90;;;;;;6066164;23;20448;-67
2022/11/07 16:38:20;;;;;;;1.73;1.73;;;13.00;99.90;;;;;;6066022;23;20432;-67
2022/11/07 16:40:47;;;;;;;2.63;1.23;;;13.10;99.90;;;;;;6065087;23;20554;-68
2022/11/07 16:43:15;;;;;;;3.70;2.10;;;13.10;99.90;;;;;;6065609;23;20403;-68
2022/11/07 16:45:45;;;;;;;2.07;2.07;;;13.10;99.90;;;;;;6065110;23;20444;-68
2022/11/07 16:48:19;;;;;;;1.87;1.77;;;13.10;99.90;;;;;;6066726;23;20469;-69
2022/11/07 16:50:45;;;;;;;1.90;1.80;;;13.20;99.90;;;;;;6066590;23;20407;-67
2022/11/07 16:53:13;;;;;;;6.00;2.70;;;13.10;99.90;;;;;;6065302;23;20451;-68
2022/11/07 16:55:42;;;;;;;2.93;1.63;;;13.10;99.90;;;;;;6065573;23;20466;-67
2022/11/07 16:58:21;;;;;;;2.43;2.33;;;13.10;99.90;;;;;;6065615;23;20506;-68
2022/11/07 17:00:48;;;;;;;2.87;1.83;;;13.00;99.90;;;;;;6065672;23;20739;-67
2022/11/07 17:03:15;;;;;;;1.13;1.03;;;13.00;99.90;;;;;;6065171;23;20945;-67
2022/11/07 17:05:42;;;;;;;3.07;2.77;;;13.00;99.90;;;;;;6065036;23;20463;-66
2022/11/07 17:08:13;;;;;;;3.53;3.23;;;13.00;99.90;;;;;;6065527;23;20431;-67
2022/11/07 17:10:40;;;;;;;1.83;1.83;;;12.90;99.90;;;;;;6063893;23;20507;-68
2022/11/07 17:13:07;;;;;;;1.73;1.63;;;12.80;99.90;;;;;;6064545;23;20927;-68
2022/11/07 17:15:36;;;;;;;2.67;2.47;;;12.80;99.90;;;;;;6064207;23;20455;-67
2022/11/07 17:18:03;;;;;;;1.83;1.73;;;12.80;99.90;;;;;;6066006;23;20426;-68
2022/11/07 17:20:31;;;;;;;2.20;2.13;;;12.70;99.90;;;;;;6064713;23;21289;-67
2022/11/07 17:22:58;;;;;;;2.60;2.47;;;12.70;99.90;;;;;;6066371;23;20510;-67
2022/11/07 17:25:24;;;;;;;4.63;2.60;;;12.70;99.90;;;;;;6064739;23;20823;-66
2022/11/07 17:27:51;;;;;;;4.50;2.33;;;12.70;99.90;;;;;;6067013;23;20428;-67
2022/11/07 17:30:19;;;;;;;3.50;2.57;;;12.70;99.90;;;;;;6065006;23;20433;-68
2022/11/07 17:32:47;;;;;;;4.70;3.53;;;12.60;99.90;;;;;;6064978;23;20435;-67
2022/11/07 17:35:14;;;;;;;4.25;2.83;;;12.60;99.90;;;;;;6065036;23;20915;-70
2022/11/07 17:37:40;;;;;;;11.23;2.17;;;12.60;99.90;;;;;;6066910;23;20266;-68
2022/11/07 17:40:11;;;;;;;2.70;2.50;;;12.60;99.90;;;;;;6070063;23;20433;-67
2022/11/07 17:42:38;;;;;;;1.90;1.80;;;12.60;99.90;;;;;;6076065;23;20615;-68
2022/11/07 17:45:06;;;;;;;1.50;1.50;;;12.60;99.90;;;;;;6077549;23;20439;-67
2022/11/07 17:47:33;;;;;;;1.73;1.73;;;12.50;99.90;;;;;;6077676;23;20427;-67
2022/11/07 17:50:01;;;;;;;2.40;2.20;;;12.50;99.90;;;;;;6077501;23;20427;-67
2022/11/07 17:52:29;;;;;;;1.97;1.97;;;12.50;99.90;;;;;;6077022;23;20434;-68
2022/11/07 17:54:56;;;;;;;2.00;2.00;;;12.60;99.90;;;;;;6077023;23;20832;-68
2022/11/07 17:57:22;;;;;;;3.73;3.33;;;12.60;99.90;;;;;;6077140;23;20522;-68
2022/11/07 17:59:50;;;;;;;1.33;1.30;;;12.60;99.90;;;;;;6076682;23;20427;-69
2022/11/07 18:02:19;;;;;;;2.20;2.10;;;12.60;99.90;;;;;;6077771;23;20505;-68
2022/11/07 18:04:46;;;;;;;2.13;2.03;;;12.60;99.90;;;;;;6077169;23;20886;-68